Tropical Cyclones
[Index]
Main Index Home Page Stock Weather Photos Extreme Storms Discussion Storm News and Storm Chasing Reports Tropical Cyclones / Hurricanes / Typhoons Weather Data and Links Wild Fires / Bushfires Weather Observation Techniques Weather Picture Catalogue Tornado Pictures and Reports Stock Video Footage and DVDs for sale
Season 1946-1947 Tropical Cyclone 194647_04 Track Map
Season 1946-1947 Summaries: [BoM-AU] [JTWC-AU] [JTWC-SIO] [JTWC-SPAC] [JTWC-SH]
<<- Previous TC | BoM 1946-1947 Season | Next TC ->>

click for intensity scale information  Lat/long Grid: Show Hide

 Date Labels: Show Hide

Bureau of Meteorology Tropical Cyclone Data

Name: 194647_04
Number: 194 / 194647_04

01 Feb 1947 23:00 UTC to 14 Feb 1947 23:00 UTC

    date/time    lat    long    hPa   cat  kts
1947-02-01 23   12.6   146.9   1000                     
1947-02-02 23   15.0   147.6    996                     
1947-02-03 23   17.4   146.8   1000                     
1947-02-04 04   18.2   146.1                            
1947-02-04 09   19.0   145.9                            
1947-02-04 14   19.6   146.2                            
1947-02-04 19   19.5   147.1                            
1947-02-04 23   19.2   147.8   1001                     
1947-02-05 23   18.2   148.2   1001                     
1947-02-06 23   17.5   148.3   1003                     
1947-02-07 23   17.1   148.5   1003                     
1947-02-08 23   17.6   148.8   1003                     
1947-02-09 23   19.2   149.5   1002                     
1947-02-10 11   21.3   150.5                            
1947-02-10 15   22.3   150.2                            
1947-02-10 23   23.7   149.6   1002                     
1947-02-11 09   24.8   150.3                            
1947-02-11 21   24.7   152.1                            
1947-02-11 23   24.7   152.3   1002                     
1947-02-12 05   25.4   152.6                            
1947-02-12 23   27.0   152.8                            
1947-02-13 23   25.0   154.5   1001                     
1947-02-14 23   23.0   153.6   1003                     
Winds are 10-min average.

Tropical cyclone tracks developed by Michael Bath using data from the Bureau of Meteorology and Google Maps.


[Australian Severe Weather index] [Copyright Notice] [Email Contacts] [Search This Site] [Privacy Policy]
Document: tropical_cyclone_194647_04.htm Updated: 30 May 2013